sensor_id;sensor_type;location;lat;lon;timestamp;P1;durP1;ratioP1;P2;durP2;ratioP2
10387;SDS011;5240;51.128;4.566;2023-03-19T00:02:08;5.40;;;2.90;;
10387;SDS011;5240;51.128;4.566;2023-03-19T00:04:35;4.28;;;2.90;;
10387;SDS011;5240;51.128;4.566;2023-03-19T00:07:02;4.85;;;3.20;;
10387;SDS011;5240;51.128;4.566;2023-03-19T00:09:30;4.28;;;3.20;;
10387;SDS011;5240;51.128;4.566;2023-03-19T00:11:57;5.20;;;3.30;;
10387;SDS011;5240;51.128;4.566;2023-03-19T00:14:24;4.20;;;3.15;;
10387;SDS011;5240;51.128;4.566;2023-03-19T00:16:51;4.53;;;3.00;;
10387;SDS011;5240;51.128;4.566;2023-03-19T00:19:18;5.07;;;3.45;;
10387;SDS011;5240;51.128;4.566;2023-03-19T00:21:46;6.60;;;3.45;;
10387;SDS011;5240;51.128;4.566;2023-03-19T00:24:13;4.60;;;2.80;;
10387;SDS011;5240;51.128;4.566;2023-03-19T00:26:43;4.72;;;3.05;;
10387;SDS011;5240;51.128;4.566;2023-03-19T00:29:10;4.63;;;3.25;;
10387;SDS011;5240;51.128;4.566;2023-03-19T00:31:38;4.78;;;3.28;;
10387;SDS011;5240;51.128;4.566;2023-03-19T00:34:07;4.18;;;3.42;;
10387;SDS011;5240;51.128;4.566;2023-03-19T00:36:34;4.95;;;3.40;;
10387;SDS011;5240;51.128;4.566;2023-03-19T00:39:02;4.47;;;3.50;;
10387;SDS011;5240;51.128;4.566;2023-03-19T00:41:29;3.53;;;3.22;;
10387;SDS011;5240;51.128;4.566;2023-03-19T00:43:58;4.28;;;3.63;;
10387;SDS011;5240;51.128;4.566;2023-03-19T00:46:25;7.88;;;3.67;;
10387;SDS011;5240;51.128;4.566;2023-03-19T00:48:52;4.30;;;3.38;;
10387;SDS011;5240;51.128;4.566;2023-03-19T00:51:20;6.15;;;3.75;;
10387;SDS011;5240;51.128;4.566;2023-03-19T00:53:48;8.35;;;3.70;;
10387;SDS011;5240;51.128;4.566;2023-03-19T00:56:15;7.35;;;3.90;;
10387;SDS011;5240;51.128;4.566;2023-03-19T00:58:43;4.90;;;4.00;;
10387;SDS011;5240;51.128;4.566;2023-03-19T01:01:13;6.10;;;4.68;;
10387;SDS011;5240;51.128;4.566;2023-03-19T01:03:41;6.90;;;4.22;;
10387;SDS011;5240;51.128;4.566;2023-03-19T01:06:09;6.22;;;4.43;;
10387;SDS011;5240;51.128;4.566;2023-03-19T01:08:36;6.50;;;4.63;;
10387;SDS011;5240;51.128;4.566;2023-03-19T01:11:04;6.18;;;4.53;;
10387;SDS011;5240;51.128;4.566;2023-03-19T01:13:33;6.80;;;4.70;;
10387;SDS011;5240;51.128;4.566;2023-03-19T01:16:00;8.23;;;4.70;;
10387;SDS011;5240;51.128;4.566;2023-03-19T01:18:29;6.53;;;4.75;;
10387;SDS011;5240;51.128;4.566;2023-03-19T01:20:56;7.00;;;4.45;;
10387;SDS011;5240;51.128;4.566;2023-03-19T01:23:23;6.60;;;4.90;;
10387;SDS011;5240;51.128;4.566;2023-03-19T01:25:50;8.40;;;4.90;;
10387;SDS011;5240;51.128;4.566;2023-03-19T01:28:17;7.03;;;5.15;;
10387;SDS011;5240;51.128;4.566;2023-03-19T01:30:46;6.50;;;5.10;;
10387;SDS011;5240;51.128;4.566;2023-03-19T01:33:13;7.07;;;5.28;;
10387;SDS011;5240;51.128;4.566;2023-03-19T01:35:43;8.93;;;5.25;;
10387;SDS011;5240;51.128;4.566;2023-03-19T01:38:11;8.25;;;5.40;;
10387;SDS011;5240;51.128;4.566;2023-03-19T01:40:42;6.47;;;5.07;;
10387;SDS011;5240;51.128;4.566;2023-03-19T01:43:16;6.50;;;4.88;;
10387;SDS011;5240;51.128;4.566;2023-03-19T01:45:45;5.70;;;4.75;;
10387;SDS011;5240;51.128;4.566;2023-03-19T01:48:17;5.30;;;4.80;;
10387;SDS011;5240;51.128;4.566;2023-03-19T01:50:49;5.75;;;5.15;;
10387;SDS011;5240;51.128;4.566;2023-03-19T01:53:19;6.68;;;5.20;;
10387;SDS011;5240;51.128;4.566;2023-03-19T01:55:49;7.13;;;5.00;;
10387;SDS011;5240;51.128;4.566;2023-03-19T01:58:18;6.80;;;5.60;;
10387;SDS011;5240;51.128;4.566;2023-03-19T02:00:45;8.13;;;5.53;;
10387;SDS011;5240;51.128;4.566;2023-03-19T02:03:13;7.85;;;5.00;;
10387;SDS011;5240;51.128;4.566;2023-03-19T02:05:40;5.95;;;5.35;;
10387;SDS011;5240;51.128;4.566;2023-03-19T02:08:12;6.85;;;5.80;;
10387;SDS011;5240;51.128;4.566;2023-03-19T02:10:41;6.50;;;5.80;;
10387;SDS011;5240;51.128;4.566;2023-03-19T02:13:10;6.80;;;5.68;;
10387;SDS011;5240;51.128;4.566;2023-03-19T02:15:37;6.75;;;6.13;;
10387;SDS011;5240;51.128;4.566;2023-03-19T02:18:04;6.97;;;6.00;;
10387;SDS011;5240;51.128;4.566;2023-03-19T02:20:34;7.50;;;5.82;;
10387;SDS011;5240;51.128;4.566;2023-03-19T02:23:13;7.18;;;5.88;;
10387;SDS011;5240;51.128;4.566;2023-03-19T02:28:33;7.40;;;6.70;;
10387;SDS011;5240;51.128;4.566;2023-03-19T02:31:03;9.13;;;6.20;;
10387;SDS011;5240;51.128;4.566;2023-03-19T02:33:31;7.10;;;6.40;;
10387;SDS011;5240;51.128;4.566;2023-03-19T02:35:58;8.10;;;6.63;;
10387;SDS011;5240;51.128;4.566;2023-03-19T02:38:27;7.68;;;6.88;;
10387;SDS011;5240;51.128;4.566;2023-03-19T02:40:59;7.53;;;6.75;;
10387;SDS011;5240;51.128;4.566;2023-03-19T02:43:30;10.10;;;7.45;;
10387;SDS011;5240;51.128;4.566;2023-03-19T02:45:58;7.82;;;7.03;;
10387;SDS011;5240;51.128;4.566;2023-03-19T02:48:25;8.25;;;7.45;;
10387;SDS011;5240;51.128;4.566;2023-03-19T02:50:52;10.73;;;8.05;;
10387;SDS011;5240;51.128;4.566;2023-03-19T02:53:19;9.32;;;7.70;;
10387;SDS011;5240;51.128;4.566;2023-03-19T02:55:47;8.77;;;7.60;;
10387;SDS011;5240;51.128;4.566;2023-03-19T02:58:14;9.95;;;8.05;;
10387;SDS011;5240;51.128;4.566;2023-03-19T03:00:42;8.90;;;7.72;;
10387;SDS011;5240;51.128;4.566;2023-03-19T03:03:10;9.88;;;7.50;;
10387;SDS011;5240;51.128;4.566;2023-03-19T03:05:38;11.05;;;8.18;;
10387;SDS011;5240;51.128;4.566;2023-03-19T03:08:05;8.95;;;7.97;;
10387;SDS011;5240;51.128;4.566;2023-03-19T03:10:32;10.95;;;7.82;;
10387;SDS011;5240;51.128;4.566;2023-03-19T03:12:59;9.93;;;8.07;;
10387;SDS011;5240;51.128;4.566;2023-03-19T03:15:26;9.65;;;8.73;;
10387;SDS011;5240;51.128;4.566;2023-03-19T03:17:55;11.90;;;9.05;;
10387;SDS011;5240;51.128;4.566;2023-03-19T03:20:22;9.98;;;8.77;;
10387;SDS011;5240;51.128;4.566;2023-03-19T03:22:49;11.05;;;8.98;;
10387;SDS011;5240;51.128;4.566;2023-03-19T03:25:17;11.15;;;8.95;;
10387;SDS011;5240;51.128;4.566;2023-03-19T03:27:45;10.77;;;9.30;;
10387;SDS011;5240;51.128;4.566;2023-03-19T03:30:12;10.60;;;8.77;;
10387;SDS011;5240;51.128;4.566;2023-03-19T03:32:41;10.57;;;9.27;;
10387;SDS011;5240;51.128;4.566;2023-03-19T03:35:10;10.02;;;8.98;;
10387;SDS011;5240;51.128;4.566;2023-03-19T03:37:37;10.93;;;8.95;;
10387;SDS011;5240;51.128;4.566;2023-03-19T03:40:05;11.02;;;8.48;;
10387;SDS011;5240;51.128;4.566;2023-03-19T03:42:33;11.52;;;9.10;;
10387;SDS011;5240;51.128;4.566;2023-03-19T03:45:01;11.95;;;9.48;;
10387;SDS011;5240;51.128;4.566;2023-03-19T03:47:28;12.05;;;9.82;;
10387;SDS011;5240;51.128;4.566;2023-03-19T03:49:56;10.68;;;9.55;;
10387;SDS011;5240;51.128;4.566;2023-03-19T03:52:24;10.38;;;9.32;;
10387;SDS011;5240;51.128;4.566;2023-03-19T03:54:55;12.00;;;10.55;;
10387;SDS011;5240;51.128;4.566;2023-03-19T03:57:23;14.75;;;10.48;;
10387;SDS011;5240;51.128;4.566;2023-03-19T03:59:50;11.20;;;10.13;;
10387;SDS011;5240;51.128;4.566;2023-03-19T04:02:17;12.07;;;10.52;;
10387;SDS011;5240;51.128;4.566;2023-03-19T04:04:45;12.52;;;10.05;;
10387;SDS011;5240;51.128;4.566;2023-03-19T04:07:12;12.02;;;10.75;;
10387;SDS011;5240;51.128;4.566;2023-03-19T04:09:41;16.10;;;11.18;;
10387;SDS011;5240;51.128;4.566;2023-03-19T04:12:08;13.98;;;11.15;;
10387;SDS011;5240;51.128;4.566;2023-03-19T04:14:36;11.15;;;10.00;;
10387;SDS011;5240;51.128;4.566;2023-03-19T04:17:03;11.60;;;10.25;;
10387;SDS011;5240;51.128;4.566;2023-03-19T04:19:31;11.90;;;10.32;;
10387;SDS011;5240;51.128;4.566;2023-03-19T04:21:58;11.30;;;10.23;;
10387;SDS011;5240;51.128;4.566;2023-03-19T04:24:27;12.40;;;10.48;;
10387;SDS011;5240;51.128;4.566;2023-03-19T04:26:56;11.65;;;10.07;;
10387;SDS011;5240;51.128;4.566;2023-03-19T04:29:23;12.80;;;10.07;;
10387;SDS011;5240;51.128;4.566;2023-03-19T04:31:50;12.05;;;10.35;;
10387;SDS011;5240;51.128;4.566;2023-03-19T04:34:17;13.02;;;10.63;;
10387;SDS011;5240;51.128;4.566;2023-03-19T04:36:45;15.70;;;11.32;;
10387;SDS011;5240;51.128;4.566;2023-03-19T04:39:12;13.57;;;11.90;;
10387;SDS011;5240;51.128;4.566;2023-03-19T04:41:39;12.10;;;10.80;;
10387;SDS011;5240;51.128;4.566;2023-03-19T04:44:07;14.63;;;11.00;;
10387;SDS011;5240;51.128;4.566;2023-03-19T04:46:34;12.13;;;10.93;;
10387;SDS011;5240;51.128;4.566;2023-03-19T04:49:02;13.23;;;10.68;;
10387;SDS011;5240;51.128;4.566;2023-03-19T04:51:29;12.82;;;10.55;;
10387;SDS011;5240;51.128;4.566;2023-03-19T04:53:56;13.10;;;10.02;;
10387;SDS011;5240;51.128;4.566;2023-03-19T04:56:24;13.27;;;9.82;;
10387;SDS011;5240;51.128;4.566;2023-03-19T04:58:51;11.98;;;9.70;;
10387;SDS011;5240;51.128;4.566;2023-03-19T05:01:20;10.05;;;8.80;;
10387;SDS011;5240;51.128;4.566;2023-03-19T05:03:47;12.70;;;9.27;;
10387;SDS011;5240;51.128;4.566;2023-03-19T05:06:14;15.52;;;9.27;;
10387;SDS011;5240;51.128;4.566;2023-03-19T05:08:44;10.73;;;9.20;;
10387;SDS011;5240;51.128;4.566;2023-03-19T05:11:11;10.90;;;8.50;;
10387;SDS011;5240;51.128;4.566;2023-03-19T05:13:38;14.73;;;8.65;;
10387;SDS011;5240;51.128;4.566;2023-03-19T05:16:05;11.40;;;8.52;;
10387;SDS011;5240;51.128;4.566;2023-03-19T05:18:34;10.65;;;8.40;;
10387;SDS011;5240;51.128;4.566;2023-03-19T05:21:02;12.73;;;8.85;;
10387;SDS011;5240;51.128;4.566;2023-03-19T05:23:30;16.67;;;8.90;;
10387;SDS011;5240;51.128;4.566;2023-03-19T05:25:57;10.48;;;8.38;;
10387;SDS011;5240;51.128;4.566;2023-03-19T05:28:25;12.43;;;8.80;;
10387;SDS011;5240;51.128;4.566;2023-03-19T05:30:52;13.85;;;9.98;;
10387;SDS011;5240;51.128;4.566;2023-03-19T05:33:19;11.25;;;9.57;;
10387;SDS011;5240;51.128;4.566;2023-03-19T05:35:49;11.68;;;9.55;;
10387;SDS011;5240;51.128;4.566;2023-03-19T05:38:16;14.00;;;10.65;;
10387;SDS011;5240;51.128;4.566;2023-03-19T05:40:43;15.32;;;9.82;;
10387;SDS011;5240;51.128;4.566;2023-03-19T05:43:11;11.32;;;8.93;;
10387;SDS011;5240;51.128;4.566;2023-03-19T05:45:38;12.52;;;10.00;;
10387;SDS011;5240;51.128;4.566;2023-03-19T05:48:06;12.52;;;9.18;;
10387;SDS011;5240;51.128;4.566;2023-03-19T05:50:33;11.50;;;9.45;;
10387;SDS011;5240;51.128;4.566;2023-03-19T05:53:02;10.70;;;9.32;;
10387;SDS011;5240;51.128;4.566;2023-03-19T05:55:29;14.73;;;10.68;;
10387;SDS011;5240;51.128;4.566;2023-03-19T05:57:56;15.05;;;10.75;;
10387;SDS011;5240;51.128;4.566;2023-03-19T06:00:23;15.75;;;10.10;;
10387;SDS011;5240;51.128;4.566;2023-03-19T06:02:51;16.40;;;10.27;;
10387;SDS011;5240;51.128;4.566;2023-03-19T06:05:19;16.65;;;10.25;;
10387;SDS011;5240;51.128;4.566;2023-03-19T06:07:46;17.67;;;10.20;;
10387;SDS011;5240;51.128;4.566;2023-03-19T06:10:15;13.85;;;9.77;;
10387;SDS011;5240;51.128;4.566;2023-03-19T06:12:42;15.23;;;10.25;;
10387;SDS011;5240;51.128;4.566;2023-03-19T06:15:09;13.77;;;10.07;;
10387;SDS011;5240;51.128;4.566;2023-03-19T06:17:36;14.85;;;9.82;;
10387;SDS011;5240;51.128;4.566;2023-03-19T06:20:04;14.10;;;10.30;;
10387;SDS011;5240;51.128;4.566;2023-03-19T06:22:31;14.98;;;10.15;;
10387;SDS011;5240;51.128;4.566;2023-03-19T06:24:58;14.48;;;9.23;;
10387;SDS011;5240;51.128;4.566;2023-03-19T06:27:27;17.35;;;10.27;;
10387;SDS011;5240;51.128;4.566;2023-03-19T06:29:54;15.15;;;9.70;;
10387;SDS011;5240;51.128;4.566;2023-03-19T06:32:21;17.02;;;9.85;;
10387;SDS011;5240;51.128;4.566;2023-03-19T06:34:48;14.80;;;10.40;;
10387;SDS011;5240;51.128;4.566;2023-03-19T06:37:15;15.07;;;10.15;;
10387;SDS011;5240;51.128;4.566;2023-03-19T06:39:43;14.20;;;9.98;;
10387;SDS011;5240;51.128;4.566;2023-03-19T06:42:10;14.38;;;10.27;;
10387;SDS011;5240;51.128;4.566;2023-03-19T06:44:38;16.50;;;10.48;;
10387;SDS011;5240;51.128;4.566;2023-03-19T06:47:06;14.80;;;9.50;;
10387;SDS011;5240;51.128;4.566;2023-03-19T06:49:33;16.17;;;9.52;;
10387;SDS011;5240;51.128;4.566;2023-03-19T06:52:00;13.32;;;10.00;;
10387;SDS011;5240;51.128;4.566;2023-03-19T06:54:27;14.40;;;9.68;;
10387;SDS011;5240;51.128;4.566;2023-03-19T06:56:54;15.95;;;9.48;;
10387;SDS011;5240;51.128;4.566;2023-03-19T06:59:21;12.90;;;10.05;;
10387;SDS011;5240;51.128;4.566;2023-03-19T07:01:50;15.00;;;10.63;;
10387;SDS011;5240;51.128;4.566;2023-03-19T07:04:18;15.43;;;9.68;;
10387;SDS011;5240;51.128;4.566;2023-03-19T07:06:45;13.15;;;9.77;;
10387;SDS011;5240;51.128;4.566;2023-03-19T07:09:12;15.05;;;10.05;;
10387;SDS011;5240;51.128;4.566;2023-03-19T07:11:39;16.30;;;11.60;;
10387;SDS011;5240;51.128;4.566;2023-03-19T07:14:06;14.75;;;10.55;;
10387;SDS011;5240;51.128;4.566;2023-03-19T07:16:33;15.45;;;9.73;;
10387;SDS011;5240;51.128;4.566;2023-03-19T07:19:02;15.95;;;10.02;;
10387;SDS011;5240;51.128;4.566;2023-03-19T07:21:29;15.23;;;10.18;;
10387;SDS011;5240;51.128;4.566;2023-03-19T07:23:57;16.58;;;10.57;;
10387;SDS011;5240;51.128;4.566;2023-03-19T07:26:24;18.65;;;10.52;;
10387;SDS011;5240;51.128;4.566;2023-03-19T07:28:51;17.92;;;9.98;;
10387;SDS011;5240;51.128;4.566;2023-03-19T07:31:18;13.82;;;10.23;;
10387;SDS011;5240;51.128;4.566;2023-03-19T07:33:45;15.20;;;9.60;;
10387;SDS011;5240;51.128;4.566;2023-03-19T07:36:14;15.75;;;10.07;;
10387;SDS011;5240;51.128;4.566;2023-03-19T07:38:41;15.00;;;9.48;;
10387;SDS011;5240;51.128;4.566;2023-03-19T07:41:08;14.23;;;9.35;;
10387;SDS011;5240;51.128;4.566;2023-03-19T07:43:35;12.95;;;9.38;;
10387;SDS011;5240;51.128;4.566;2023-03-19T07:46:02;15.02;;;9.38;;
10387;SDS011;5240;51.128;4.566;2023-03-19T07:48:30;15.60;;;9.23;;
10387;SDS011;5240;51.128;4.566;2023-03-19T07:50:57;15.18;;;8.70;;
10387;SDS011;5240;51.128;4.566;2023-03-19T07:53:25;11.38;;;8.50;;
10387;SDS011;5240;51.128;4.566;2023-03-19T07:55:52;13.00;;;8.00;;
10387;SDS011;5240;51.128;4.566;2023-03-19T07:58:20;15.57;;;8.30;;
10387;SDS011;5240;51.128;4.566;2023-03-19T08:00:47;10.88;;;8.18;;
10387;SDS011;5240;51.128;4.566;2023-03-19T08:03:14;19.27;;;7.25;;
10387;SDS011;5240;51.128;4.566;2023-03-19T08:05:41;18.00;;;7.00;;
10387;SDS011;5240;51.128;4.566;2023-03-19T08:08:08;9.85;;;5.80;;
10387;SDS011;5240;51.128;4.566;2023-03-19T08:10:37;9.50;;;5.85;;
10387;SDS011;5240;51.128;4.566;2023-03-19T08:13:04;14.00;;;6.10;;
10387;SDS011;5240;51.128;4.566;2023-03-19T08:15:31;13.80;;;5.70;;
10387;SDS011;5240;51.128;4.566;2023-03-19T08:17:58;11.93;;;5.32;;
10387;SDS011;5240;51.128;4.566;2023-03-19T08:20:27;11.70;;;5.55;;
10387;SDS011;5240;51.128;4.566;2023-03-19T08:22:54;11.82;;;5.88;;
10387;SDS011;5240;51.128;4.566;2023-03-19T08:25:22;14.68;;;6.07;;
10387;SDS011;5240;51.128;4.566;2023-03-19T08:27:51;13.60;;;5.50;;
10387;SDS011;5240;51.128;4.566;2023-03-19T08:30:18;11.10;;;5.35;;
10387;SDS011;5240;51.128;4.566;2023-03-19T08:32:45;8.77;;;5.47;;
10387;SDS011;5240;51.128;4.566;2023-03-19T08:35:13;12.68;;;5.40;;
10387;SDS011;5240;51.128;4.566;2023-03-19T08:37:40;11.13;;;4.97;;
10387;SDS011;5240;51.128;4.566;2023-03-19T08:40:07;9.70;;;4.82;;
10387;SDS011;5240;51.128;4.566;2023-03-19T08:42:35;12.07;;;5.43;;
10387;SDS011;5240;51.128;4.566;2023-03-19T08:45:08;8.13;;;4.15;;
10387;SDS011;5240;51.128;4.566;2023-03-19T08:47:36;9.02;;;4.57;;
10387;SDS011;5240;51.128;4.566;2023-03-19T08:50:03;10.23;;;4.53;;
10387;SDS011;5240;51.128;4.566;2023-03-19T08:52:32;11.23;;;4.53;;
10387;SDS011;5240;51.128;4.566;2023-03-19T08:54:59;9.80;;;4.68;;
10387;SDS011;5240;51.128;4.566;2023-03-19T08:57:26;8.57;;;4.25;;
10387;SDS011;5240;51.128;4.566;2023-03-19T08:59:53;8.75;;;4.38;;
10387;SDS011;5240;51.128;4.566;2023-03-19T09:02:21;10.60;;;4.10;;
10387;SDS011;5240;51.128;4.566;2023-03-19T09:04:48;12.07;;;4.20;;
10387;SDS011;5240;51.128;4.566;2023-03-19T09:07:16;10.57;;;3.97;;
10387;SDS011;5240;51.128;4.566;2023-03-19T09:09:43;10.90;;;7.07;;
10387;SDS011;5240;51.128;4.566;2023-03-19T09:12:12;9.35;;;4.00;;
10387;SDS011;5240;51.128;4.566;2023-03-19T09:14:40;8.50;;;3.97;;
10387;SDS011;5240;51.128;4.566;2023-03-19T09:17:08;8.00;;;3.65;;
10387;SDS011;5240;51.128;4.566;2023-03-19T09:19:38;6.80;;;3.45;;
10387;SDS011;5240;51.128;4.566;2023-03-19T09:22:06;8.48;;;3.70;;
10387;SDS011;5240;51.128;4.566;2023-03-19T09:24:33;10.95;;;4.13;;
10387;SDS011;5240;51.128;4.566;2023-03-19T09:27:00;9.85;;;4.28;;
10387;SDS011;5240;51.128;4.566;2023-03-19T09:29:27;8.32;;;3.70;;
10387;SDS011;5240;51.128;4.566;2023-03-19T09:31:54;8.38;;;4.25;;
10387;SDS011;5240;51.128;4.566;2023-03-19T09:34:21;12.80;;;4.70;;
10387;SDS011;5240;51.128;4.566;2023-03-19T09:36:50;10.35;;;4.53;;
10387;SDS011;5240;51.128;4.566;2023-03-19T09:39:17;8.10;;;5.07;;
10387;SDS011;5240;51.128;4.566;2023-03-19T09:41:48;10.52;;;4.95;;
10387;SDS011;5240;51.128;4.566;2023-03-19T09:44:28;9.13;;;4.63;;
10387;SDS011;5240;51.128;4.566;2023-03-19T09:46:58;7.95;;;4.97;;
10387;SDS011;5240;51.128;4.566;2023-03-19T09:49:38;14.85;;;5.50;;
10387;SDS011;5240;51.128;4.566;2023-03-19T09:52:13;8.95;;;5.22;;
10387;SDS011;5240;51.128;4.566;2023-03-19T09:54:52;14.63;;;5.32;;
10387;SDS011;5240;51.128;4.566;2023-03-19T09:57:23;8.73;;;5.05;;
10387;SDS011;5240;51.128;4.566;2023-03-19T09:59:53;8.02;;;5.05;;
10387;SDS011;5240;51.128;4.566;2023-03-19T10:02:28;14.63;;;6.13;;
10387;SDS011;5240;51.128;4.566;2023-03-19T10:05:06;8.82;;;6.63;;
10387;SDS011;5240;51.128;4.566;2023-03-19T10:07:51;13.23;;;6.68;;
10387;SDS011;5240;51.128;4.566;2023-03-19T10:10:40;11.63;;;5.82;;
10387;SDS011;5240;51.128;4.566;2023-03-19T10:13:19;42.83;;;8.32;;
10387;SDS011;5240;51.128;4.566;2023-03-19T10:16:02;10.00;;;5.22;;
10387;SDS011;5240;51.128;4.566;2023-03-19T10:18:31;9.82;;;5.15;;
10387;SDS011;5240;51.128;4.566;2023-03-19T10:21:00;8.65;;;4.93;;
10387;SDS011;5240;51.128;4.566;2023-03-19T10:23:33;11.30;;;5.05;;
10387;SDS011;5240;51.128;4.566;2023-03-19T10:26:07;9.27;;;4.57;;
10387;SDS011;5240;51.128;4.566;2023-03-19T10:28:37;11.48;;;5.03;;
10387;SDS011;5240;51.128;4.566;2023-03-19T10:31:19;10.40;;;5.40;;
10387;SDS011;5240;51.128;4.566;2023-03-19T10:33:53;11.02;;;5.38;;
10387;SDS011;5240;51.128;4.566;2023-03-19T10:36:32;8.82;;;5.05;;
10387;SDS011;5240;51.128;4.566;2023-03-19T10:39:02;7.85;;;4.95;;
10387;SDS011;5240;51.128;4.566;2023-03-19T10:41:40;12.63;;;5.18;;
10387;SDS011;5240;51.128;4.566;2023-03-19T10:44:15;9.65;;;4.95;;
10387;SDS011;5240;51.128;4.566;2023-03-19T10:46:49;13.18;;;6.55;;
10387;SDS011;5240;51.128;4.566;2023-03-19T10:49:16;14.38;;;8.40;;
10387;SDS011;5240;51.128;4.566;2023-03-19T10:51:44;14.65;;;9.55;;
10387;SDS011;5240;51.128;4.566;2023-03-19T10:54:18;13.52;;;8.73;;
10387;SDS011;5240;51.128;4.566;2023-03-19T10:56:47;14.85;;;7.35;;
10387;SDS011;5240;51.128;4.566;2023-03-19T10:59:22;11.80;;;7.57;;
10387;SDS011;5240;51.128;4.566;2023-03-19T11:01:55;13.10;;;9.90;;
10387;SDS011;5240;51.128;4.566;2023-03-19T11:04:24;14.88;;;10.00;;
10387;SDS011;5240;51.128;4.566;2023-03-19T11:06:54;13.23;;;10.25;;
10387;SDS011;5240;51.128;4.566;2023-03-19T11:09:29;13.05;;;9.52;;
10387;SDS011;5240;51.128;4.566;2023-03-19T11:12:05;13.57;;;10.77;;
10387;SDS011;5240;51.128;4.566;2023-03-19T11:14:34;16.48;;;10.23;;
10387;SDS011;5240;51.128;4.566;2023-03-19T11:17:04;15.25;;;10.63;;
10387;SDS011;5240;51.128;4.566;2023-03-19T11:19:41;13.43;;;9.65;;
10387;SDS011;5240;51.128;4.566;2023-03-19T11:22:15;14.65;;;9.00;;
10387;SDS011;5240;51.128;4.566;2023-03-19T11:24:51;13.10;;;9.05;;
10387;SDS011;5240;51.128;4.566;2023-03-19T11:27:25;12.57;;;7.95;;
10387;SDS011;5240;51.128;4.566;2023-03-19T11:29:53;10.95;;;7.70;;
10387;SDS011;5240;51.128;4.566;2023-03-19T11:32:34;15.48;;;8.32;;
10387;SDS011;5240;51.128;4.566;2023-03-19T11:35:21;12.25;;;7.78;;
10387;SDS011;5240;51.128;4.566;2023-03-19T11:37:53;14.05;;;7.70;;
10387;SDS011;5240;51.128;4.566;2023-03-19T11:40:28;13.30;;;6.72;;
10387;SDS011;5240;51.128;4.566;2023-03-19T11:43:12;10.70;;;6.75;;
10387;SDS011;5240;51.128;4.566;2023-03-19T11:46:17;13.10;;;7.45;;
10387;SDS011;5240;51.128;4.566;2023-03-19T11:51:49;13.18;;;7.85;;
10387;SDS011;5240;51.128;4.566;2023-03-19T11:54:25;11.27;;;7.25;;
10387;SDS011;5240;51.128;4.566;2023-03-19T11:56:59;11.35;;;8.10;;
10387;SDS011;5240;51.128;4.566;2023-03-19T11:59:37;12.05;;;8.23;;
10387;SDS011;5240;51.128;4.566;2023-03-19T12:05:17;12.98;;;8.82;;
10387;SDS011;5240;51.128;4.566;2023-03-19T12:07:49;12.70;;;8.70;;
10387;SDS011;5240;51.128;4.566;2023-03-19T12:10:30;15.25;;;9.90;;
10387;SDS011;5240;51.128;4.566;2023-03-19T12:13:12;14.75;;;9.10;;
10387;SDS011;5240;51.128;4.566;2023-03-19T12:15:55;15.55;;;8.43;;
10387;SDS011;5240;51.128;4.566;2023-03-19T12:18:41;13.70;;;9.02;;
10387;SDS011;5240;51.128;4.566;2023-03-19T12:21:21;12.10;;;8.32;;
10387;SDS011;5240;51.128;4.566;2023-03-19T12:23:58;11.55;;;8.68;;
10387;SDS011;5240;51.128;4.566;2023-03-19T12:26:31;12.00;;;8.23;;
10387;SDS011;5240;51.128;4.566;2023-03-19T12:29:12;11.27;;;7.60;;
10387;SDS011;5240;51.128;4.566;2023-03-19T12:31:56;13.55;;;7.60;;
10387;SDS011;5240;51.128;4.566;2023-03-19T12:34:39;8.73;;;7.20;;
10387;SDS011;5240;51.128;4.566;2023-03-19T12:37:12;10.02;;;6.40;;
10387;SDS011;5240;51.128;4.566;2023-03-19T12:39:47;14.63;;;7.10;;
10387;SDS011;5240;51.128;4.566;2023-03-19T12:42:19;12.60;;;7.15;;
10387;SDS011;5240;51.128;4.566;2023-03-19T12:44:51;11.77;;;7.88;;
10387;SDS011;5240;51.128;4.566;2023-03-19T12:47:21;12.02;;;7.97;;
10387;SDS011;5240;51.128;4.566;2023-03-19T12:49:52;12.60;;;8.50;;
10387;SDS011;5240;51.128;4.566;2023-03-19T12:52:22;17.58;;;9.68;;
10387;SDS011;5240;51.128;4.566;2023-03-19T12:54:54;17.38;;;9.40;;
10387;SDS011;5240;51.128;4.566;2023-03-19T12:57:28;15.15;;;9.93;;
10387;SDS011;5240;51.128;4.566;2023-03-19T13:00:04;13.85;;;9.52;;
10387;SDS011;5240;51.128;4.566;2023-03-19T13:02:37;13.60;;;9.40;;
10387;SDS011;5240;51.128;4.566;2023-03-19T13:05:12;15.57;;;10.05;;
10387;SDS011;5240;51.128;4.566;2023-03-19T13:07:49;16.63;;;10.70;;
10387;SDS011;5240;51.128;4.566;2023-03-19T13:10:22;15.82;;;10.32;;
10387;SDS011;5240;51.128;4.566;2023-03-19T13:12:50;14.20;;;10.18;;
10387;SDS011;5240;51.128;4.566;2023-03-19T13:15:22;15.48;;;10.65;;
10387;SDS011;5240;51.128;4.566;2023-03-19T13:17:56;15.13;;;11.07;;
10387;SDS011;5240;51.128;4.566;2023-03-19T13:20:35;12.77;;;9.93;;
10387;SDS011;5240;51.128;4.566;2023-03-19T13:23:16;11.25;;;7.63;;
10387;SDS011;5240;51.128;4.566;2023-03-19T13:25:47;14.75;;;8.55;;
10387;SDS011;5240;51.128;4.566;2023-03-19T13:28:19;14.40;;;8.43;;
10387;SDS011;5240;51.128;4.566;2023-03-19T13:31:00;12.90;;;9.00;;
10387;SDS011;5240;51.128;4.566;2023-03-19T13:33:29;13.15;;;9.70;;
10387;SDS011;5240;51.128;4.566;2023-03-19T13:35:59;13.98;;;9.80;;
10387;SDS011;5240;51.128;4.566;2023-03-19T13:38:31;12.43;;;9.50;;
10387;SDS011;5240;51.128;4.566;2023-03-19T13:41:03;14.43;;;10.73;;
10387;SDS011;5240;51.128;4.566;2023-03-19T13:43:40;11.82;;;10.02;;
10387;SDS011;5240;51.128;4.566;2023-03-19T13:46:37;17.10;;;10.43;;
10387;SDS011;5240;51.128;4.566;2023-03-19T13:49:21;12.60;;;9.77;;
10387;SDS011;5240;51.128;4.566;2023-03-19T13:51:52;14.60;;;9.82;;
10387;SDS011;5240;51.128;4.566;2023-03-19T13:54:30;13.80;;;9.30;;
10387;SDS011;5240;51.128;4.566;2023-03-19T13:59:47;10.98;;;8.52;;
10387;SDS011;5240;51.128;4.566;2023-03-19T14:05:18;11.57;;;7.90;;
10387;SDS011;5240;51.128;4.566;2023-03-19T14:07:55;10.60;;;7.82;;
10387;SDS011;5240;51.128;4.566;2023-03-19T14:10:23;8.07;;;7.25;;
10387;SDS011;5240;51.128;4.566;2023-03-19T14:12:59;7.38;;;6.53;;
10387;SDS011;5240;51.128;4.566;2023-03-19T14:15:29;6.88;;;6.18;;
10387;SDS011;5240;51.128;4.566;2023-03-19T14:17:58;6.95;;;6.25;;
10387;SDS011;5240;51.128;4.566;2023-03-19T14:20:28;7.82;;;6.20;;
10387;SDS011;5240;51.128;4.566;2023-03-19T14:23:09;6.53;;;5.63;;
10387;SDS011;5240;51.128;4.566;2023-03-19T14:25:53;7.15;;;5.53;;
10387;SDS011;5240;51.128;4.566;2023-03-19T14:28:26;7.10;;;5.70;;
10387;SDS011;5240;51.128;4.566;2023-03-19T14:31:00;8.32;;;7.35;;
10387;SDS011;5240;51.128;4.566;2023-03-19T14:33:31;12.32;;;11.02;;
10387;SDS011;5240;51.128;4.566;2023-03-19T14:36:07;13.25;;;11.00;;
10387;SDS011;5240;51.128;4.566;2023-03-19T14:38:39;13.35;;;12.02;;
10387;SDS011;5240;51.128;4.566;2023-03-19T14:41:14;14.52;;;12.18;;
10387;SDS011;5240;51.128;4.566;2023-03-19T14:43:50;16.40;;;14.80;;
10387;SDS011;5240;51.128;4.566;2023-03-19T14:46:43;17.35;;;15.50;;
10387;SDS011;5240;51.128;4.566;2023-03-19T14:52:19;14.75;;;12.68;;
10387;SDS011;5240;51.128;4.566;2023-03-19T14:54:49;13.63;;;12.13;;
10387;SDS011;5240;51.128;4.566;2023-03-19T14:57:20;24.95;;;12.52;;
10387;SDS011;5240;51.128;4.566;2023-03-19T14:59:52;14.85;;;11.43;;
10387;SDS011;5240;51.128;4.566;2023-03-19T15:02:26;11.82;;;10.63;;
10387;SDS011;5240;51.128;4.566;2023-03-19T15:05:00;12.13;;;9.48;;
10387;SDS011;5240;51.128;4.566;2023-03-19T15:07:31;10.27;;;7.97;;
10387;SDS011;5240;51.128;4.566;2023-03-19T15:10:02;7.78;;;6.97;;
10387;SDS011;5240;51.128;4.566;2023-03-19T15:12:44;8.13;;;6.45;;
10387;SDS011;5240;51.128;4.566;2023-03-19T15:15:38;10.70;;;6.53;;
10387;SDS011;5240;51.128;4.566;2023-03-19T15:18:18;9.77;;;6.78;;
10387;SDS011;5240;51.128;4.566;2023-03-19T15:20:49;7.50;;;6.10;;
10387;SDS011;5240;51.128;4.566;2023-03-19T15:23:20;8.63;;;6.35;;
10387;SDS011;5240;51.128;4.566;2023-03-19T15:25:50;6.68;;;6.03;;
10387;SDS011;5240;51.128;4.566;2023-03-19T15:28:21;7.22;;;5.90;;